Logan Station, North Carolina
Current Conditions -  °F | °C
As of 3:15 AM on Monday 22 Dec 2014 (Local Time) from KFQD Reporting Station
Drizzle Drizzle  
Wind Chill: 39°   Ceiling: 2500
Heat Index: 42°   Visibility: 3mi
Dew Point: 39°   Wind: 5mph
Humidity: 91%   Direction: 10°N
Pressure: 30.14"   Gusts: NA
Location:  35.3722°N, 82.0134°W
Report Text: KFQD 220815Z AUTO 01004KT 3SM DZ OVC025 05/04 A3014 RMK AO2 T00540041
Loading
Personal Weather Stations






























Interactive Weather Map New forecast layout! Learn more

10-Day Weather Forecast

Advertisements
Track Severe Weather on mobile